sensor_id;sensor_type;location;lat;lon;timestamp;pressure;altitude;pressure_sealevel;temperature;humidity
40285;BME280;25997;50.214;19.354;2023-03-19T00:00:30;97910.59;;;6.81;25.90
40285;BME280;25997;50.214;19.354;2023-03-19T00:03:33;97912.50;;;6.85;25.92
40285;BME280;25997;50.214;19.354;2023-03-19T00:06:36;97917.97;;;6.91;25.74
40285;BME280;25997;50.214;19.354;2023-03-19T00:09:39;97915.28;;;6.89;25.73
40285;BME280;25997;50.214;19.354;2023-03-19T00:12:41;97913.44;;;6.87;25.75
40285;BME280;25997;50.214;19.354;2023-03-19T00:15:45;97911.38;;;6.78;25.92
40285;BME280;25997;50.214;19.354;2023-03-19T00:18:48;97914.56;;;6.71;26.06
40285;BME280;25997;50.214;19.354;2023-03-19T00:21:50;97912.50;;;6.63;26.03
40285;BME280;25997;50.214;19.354;2023-03-19T00:24:53;97911.38;;;6.56;26.12
40285;BME280;25997;50.214;19.354;2023-03-19T00:27:55;97912.78;;;6.48;26.21
40285;BME280;25997;50.214;19.354;2023-03-19T00:31:07;97915.09;;;6.41;26.57
40285;BME280;25997;50.214;19.354;2023-03-19T00:34:10;97910.44;;;6.33;26.41
40285;BME280;25997;50.214;19.354;2023-03-19T00:37:13;97904.09;;;6.27;26.45
40285;BME280;25997;50.214;19.354;2023-03-19T00:40:16;97909.03;;;6.21;26.53
40285;BME280;25997;50.214;19.354;2023-03-19T00:43:18;97895.00;;;6.17;26.67
40285;BME280;25997;50.214;19.354;2023-03-19T00:46:23;97900.28;;;6.19;26.67
40285;BME280;25997;50.214;19.354;2023-03-19T00:49:26;97901.28;;;6.22;26.77
40285;BME280;25997;50.214;19.354;2023-03-19T00:52:28;97902.22;;;6.24;26.74
40285;BME280;25997;50.214;19.354;2023-03-19T00:55:31;97896.13;;;6.24;26.84
40285;BME280;25997;50.214;19.354;2023-03-19T00:58:34;97895.28;;;6.25;26.83
40285;BME280;25997;50.214;19.354;2023-03-19T01:01:40;97900.41;;;6.22;27.08
40285;BME280;25997;50.214;19.354;2023-03-19T01:04:42;97889.84;;;6.19;27.25
40285;BME280;25997;50.214;19.354;2023-03-19T01:07:45;97887.09;;;6.16;27.57
40285;BME280;25997;50.214;19.354;2023-03-19T01:10:48;97900.09;;;6.14;27.71
40285;BME280;25997;50.214;19.354;2023-03-19T01:13:51;97899.75;;;6.07;28.06
40285;BME280;25997;50.214;19.354;2023-03-19T01:16:55;97900.34;;;6.00;28.26
40285;BME280;25997;50.214;19.354;2023-03-19T01:19:58;97898.38;;;5.94;28.45
40285;BME280;25997;50.214;19.354;2023-03-19T01:23:01;97893.03;;;5.91;28.73
40285;BME280;25997;50.214;19.354;2023-03-19T01:26:04;97899.13;;;5.92;28.78
40285;BME280;25997;50.214;19.354;2023-03-19T01:29:07;97899.78;;;5.86;28.87
40285;BME280;25997;50.214;19.354;2023-03-19T01:32:12;97892.72;;;5.84;29.17
40285;BME280;25997;50.214;19.354;2023-03-19T01:35:34;97897.03;;;5.83;29.38
40285;BME280;25997;50.214;19.354;2023-03-19T01:38:37;97901.50;;;5.86;29.43
40285;BME280;25997;50.214;19.354;2023-03-19T01:41:44;97903.19;;;5.85;29.74
40285;BME280;25997;50.214;19.354;2023-03-19T01:45:33;97892.81;;;5.87;30.14
40285;BME280;25997;50.214;19.354;2023-03-19T01:48:59;97893.53;;;5.83;30.09
40285;BME280;25997;50.214;19.354;2023-03-19T01:52:03;97891.69;;;5.80;29.90
40285;BME280;25997;50.214;19.354;2023-03-19T01:55:17;97879.38;;;5.76;29.92
40285;BME280;25997;50.214;19.354;2023-03-19T01:58:41;97887.88;;;5.72;30.00
40285;BME280;25997;50.214;19.354;2023-03-19T02:02:00;97883.63;;;5.74;30.96
40285;BME280;25997;50.214;19.354;2023-03-19T02:05:09;97894.00;;;5.73;30.14
40285;BME280;25997;50.214;19.354;2023-03-19T02:08:14;97892.53;;;5.79;29.92
40285;BME280;25997;50.214;19.354;2023-03-19T02:11:20;97895.38;;;5.85;29.99
40285;BME280;25997;50.214;19.354;2023-03-19T02:14:23;97894.56;;;5.86;29.92
40285;BME280;25997;50.214;19.354;2023-03-19T02:17:26;97902.44;;;5.88;29.95
40285;BME280;25997;50.214;19.354;2023-03-19T02:20:34;97895.53;;;5.88;29.81
40285;BME280;25997;50.214;19.354;2023-03-19T02:23:44;97896.28;;;5.86;30.09
40285;BME280;25997;50.214;19.354;2023-03-19T02:26:54;97894.50;;;5.85;30.09
40285;BME280;25997;50.214;19.354;2023-03-19T02:29:57;97902.31;;;5.85;29.77
40285;BME280;25997;50.214;19.354;2023-03-19T02:32:59;97906.50;;;5.81;30.12
40285;BME280;25997;50.214;19.354;2023-03-19T02:36:04;97899.44;;;5.79;30.33
40285;BME280;25997;50.214;19.354;2023-03-19T02:39:14;97906.50;;;5.81;30.49
40285;BME280;25997;50.214;19.354;2023-03-19T02:42:21;97909.34;;;5.87;30.37
40285;BME280;25997;50.214;19.354;2023-03-19T02:45:27;97913.94;;;5.93;30.37
40285;BME280;25997;50.214;19.354;2023-03-19T02:48:29;97910.59;;;5.95;30.47
40285;BME280;25997;50.214;19.354;2023-03-19T02:51:32;97911.47;;;5.96;30.75
40285;BME280;25997;50.214;19.354;2023-03-19T02:54:35;97908.03;;;5.97;30.74
40285;BME280;25997;50.214;19.354;2023-03-19T02:57:39;97911.22;;;5.90;31.10
40285;BME280;25997;50.214;19.354;2023-03-19T03:00:41;97906.91;;;5.90;31.05
40285;BME280;25997;50.214;19.354;2023-03-19T03:03:45;97913.81;;;5.90;31.35
40285;BME280;25997;50.214;19.354;2023-03-19T03:06:47;97918.13;;;5.89;31.21
40285;BME280;25997;50.214;19.354;2023-03-19T03:09:57;97917.19;;;5.87;31.28
40285;BME280;25997;50.214;19.354;2023-03-19T03:13:01;97919.72;;;5.86;31.27
40285;BME280;25997;50.214;19.354;2023-03-19T03:16:05;97910.06;;;5.83;31.56
40285;BME280;25997;50.214;19.354;2023-03-19T03:19:08;97911.72;;;5.81;31.70
40285;BME280;25997;50.214;19.354;2023-03-19T03:22:11;97908.25;;;5.82;31.73
40285;BME280;25997;50.214;19.354;2023-03-19T03:25:14;97912.63;;;5.82;31.81
40285;BME280;25997;50.214;19.354;2023-03-19T03:28:18;97911.78;;;5.83;31.82
40285;BME280;25997;50.214;19.354;2023-03-19T03:31:21;97918.69;;;5.82;31.85
40285;BME280;25997;50.214;19.354;2023-03-19T03:34:24;97917.81;;;5.82;31.86
40285;BME280;25997;50.214;19.354;2023-03-19T03:37:26;97922.91;;;5.79;31.92
40285;BME280;25997;50.214;19.354;2023-03-19T03:40:29;97926.16;;;5.73;32.09
40285;BME280;25997;50.214;19.354;2023-03-19T03:43:34;97929.56;;;5.72;31.80
40285;BME280;25997;50.214;19.354;2023-03-19T03:46:37;97922.56;;;5.71;31.92
40285;BME280;25997;50.214;19.354;2023-03-19T03:49:40;97933.81;;;5.70;31.88
40285;BME280;25997;50.214;19.354;2023-03-19T03:52:43;97933.63;;;5.65;31.99
40285;BME280;25997;50.214;19.354;2023-03-19T03:55:46;97930.13;;;5.65;31.92
40285;BME280;25997;50.214;19.354;2023-03-19T03:58:51;97930.88;;;5.62;31.79
40285;BME280;25997;50.214;19.354;2023-03-19T04:01:53;97924.66;;;5.59;31.92
40285;BME280;25997;50.214;19.354;2023-03-19T04:04:58;97926.31;;;5.57;31.75
40285;BME280;25997;50.214;19.354;2023-03-19T04:08:00;97922.81;;;5.56;31.72
40285;BME280;25997;50.214;19.354;2023-03-19T04:11:05;97920.91;;;5.52;31.82
40285;BME280;25997;50.214;19.354;2023-03-19T04:14:09;97915.44;;;5.46;31.79
40285;BME280;25997;50.214;19.354;2023-03-19T04:17:13;97916.78;;;5.38;31.83
40285;BME280;25997;50.214;19.354;2023-03-19T04:20:16;97917.63;;;5.37;31.77
40285;BME280;25997;50.214;19.354;2023-03-19T04:23:18;97914.06;;;5.35;31.84
40285;BME280;25997;50.214;19.354;2023-03-19T04:26:21;97918.38;;;5.35;31.84
40285;BME280;25997;50.214;19.354;2023-03-19T04:29:25;97920.88;;;5.33;31.98
40285;BME280;25997;50.214;19.354;2023-03-19T04:32:28;97909.66;;;5.34;31.92
40285;BME280;25997;50.214;19.354;2023-03-19T04:35:31;97918.38;;;5.35;31.91
40285;BME280;25997;50.214;19.354;2023-03-19T04:38:33;97920.34;;;5.40;31.79
40285;BME280;25997;50.214;19.354;2023-03-19T04:41:36;97914.28;;;5.40;31.84
40285;BME280;25997;50.214;19.354;2023-03-19T04:45:07;97909.72;;;5.36;31.82
40285;BME280;25997;50.214;19.354;2023-03-19T04:48:10;97912.13;;;5.31;32.03
40285;BME280;25997;50.214;19.354;2023-03-19T04:51:13;97910.97;;;5.25;32.07
40285;BME280;25997;50.214;19.354;2023-03-19T04:54:17;97913.47;;;5.22;32.23
40285;BME280;25997;50.214;19.354;2023-03-19T04:57:20;97908.66;;;5.12;32.29
40285;BME280;25997;50.214;19.354;2023-03-19T05:00:27;97908.16;;;5.01;32.28
40285;BME280;25997;50.214;19.354;2023-03-19T05:03:30;97905.63;;;4.83;32.53
40285;BME280;25997;50.214;19.354;2023-03-19T05:06:33;97903.63;;;4.60;32.79
40285;BME280;25997;50.214;19.354;2023-03-19T05:09:36;97892.97;;;4.37;33.01
40285;BME280;25997;50.214;19.354;2023-03-19T05:12:41;97905.69;;;4.13;33.26
40285;BME280;25997;50.214;19.354;2023-03-19T05:15:46;97906.56;;;3.96;33.69
40285;BME280;25997;50.214;19.354;2023-03-19T05:18:49;97902.19;;;3.95;33.68
40285;BME280;25997;50.214;19.354;2023-03-19T05:21:51;97910.44;;;3.86;33.80
40285;BME280;25997;50.214;19.354;2023-03-19T05:24:57;97911.75;;;3.78;34.16
40285;BME280;25997;50.214;19.354;2023-03-19T05:28:01;97903.81;;;3.75;34.29
40285;BME280;25997;50.214;19.354;2023-03-19T05:31:05;97908.63;;;3.85;34.11
40285;BME280;25997;50.214;19.354;2023-03-19T05:34:17;97910.78;;;4.11;33.72
40285;BME280;25997;50.214;19.354;2023-03-19T05:37:21;97916.09;;;4.31;33.99
40285;BME280;25997;50.214;19.354;2023-03-19T05:40:30;97908.19;;;4.47;33.61
40285;BME280;25997;50.214;19.354;2023-03-19T05:43:43;97912.84;;;4.54;33.55
40285;BME280;25997;50.214;19.354;2023-03-19T05:46:57;97912.53;;;4.65;33.56
40285;BME280;25997;50.214;19.354;2023-03-19T05:50:04;97916.50;;;4.75;33.42
40285;BME280;25997;50.214;19.354;2023-03-19T05:53:07;97926.50;;;4.85;33.27
40285;BME280;25997;50.214;19.354;2023-03-19T05:56:12;97922.78;;;4.98;33.56
40285;BME280;25997;50.214;19.354;2023-03-19T05:59:29;97925.31;;;5.15;33.23
40285;BME280;25997;50.214;19.354;2023-03-19T06:02:47;97922.97;;;5.21;33.38
40285;BME280;25997;50.214;19.354;2023-03-19T06:06:16;97930.94;;;5.24;33.43
40285;BME280;25997;50.214;19.354;2023-03-19T06:09:19;97931.66;;;5.41;33.29
40285;BME280;25997;50.214;19.354;2023-03-19T06:12:28;97932.53;;;5.60;33.42
40285;BME280;25997;50.214;19.354;2023-03-19T06:15:53;97932.94;;;5.90;33.12
40285;BME280;25997;50.214;19.354;2023-03-19T06:19:01;97938.03;;;6.08;33.09
40285;BME280;25997;50.214;19.354;2023-03-19T06:22:04;97936.28;;;6.27;32.96
40285;BME280;25997;50.214;19.354;2023-03-19T06:25:07;97937.22;;;6.50;32.78
40285;BME280;25997;50.214;19.354;2023-03-19T06:28:11;97932.81;;;6.71;32.55
40285;BME280;25997;50.214;19.354;2023-03-19T06:31:16;97933.31;;;6.83;32.47
40285;BME280;25997;50.214;19.354;2023-03-19T06:34:34;97934.75;;;6.97;32.45
40285;BME280;25997;50.214;19.354;2023-03-19T06:37:36;97934.41;;;7.12;32.38
40285;BME280;25997;50.214;19.354;2023-03-19T06:40:39;97934.22;;;7.30;32.23
40285;BME280;25997;50.214;19.354;2023-03-19T06:43:41;97942.72;;;7.48;32.13
40285;BME280;25997;50.214;19.354;2023-03-19T06:46:44;97947.66;;;7.64;32.17
40285;BME280;25997;50.214;19.354;2023-03-19T06:49:47;97947.31;;;7.77;32.19
40285;BME280;25997;50.214;19.354;2023-03-19T06:52:50;97942.44;;;7.88;32.14
40285;BME280;25997;50.214;19.354;2023-03-19T06:55:52;97946.78;;;7.87;32.45
40285;BME280;25997;50.214;19.354;2023-03-19T06:58:55;97946.28;;;7.97;32.60
40285;BME280;25997;50.214;19.354;2023-03-19T07:01:58;97947.75;;;8.16;32.41
40285;BME280;25997;50.214;19.354;2023-03-19T07:05:02;97947.28;;;8.27;32.34
40285;BME280;25997;50.214;19.354;2023-03-19T07:08:05;97946.94;;;8.42;32.21
40285;BME280;25997;50.214;19.354;2023-03-19T07:11:12;97950.03;;;8.57;32.39
40285;BME280;25997;50.214;19.354;2023-03-19T07:14:15;97948.16;;;8.80;32.25
40285;BME280;25997;50.214;19.354;2023-03-19T07:17:18;97948.53;;;8.92;32.50
40285;BME280;25997;50.214;19.354;2023-03-19T07:20:24;97936.63;;;9.01;32.36
40285;BME280;25997;50.214;19.354;2023-03-19T07:23:26;97937.59;;;9.33;32.30
40285;BME280;25997;50.214;19.354;2023-03-19T07:26:29;97940.16;;;9.61;32.02
40285;BME280;25997;50.214;19.354;2023-03-19T07:29:31;97939.25;;;9.92;31.95
40285;BME280;25997;50.214;19.354;2023-03-19T07:32:34;97933.56;;;10.07;31.75
40285;BME280;25997;50.214;19.354;2023-03-19T07:35:38;97928.50;;;10.14;31.60
40285;BME280;25997;50.214;19.354;2023-03-19T07:38:40;97938.97;;;10.13;31.67
40285;BME280;25997;50.214;19.354;2023-03-19T07:41:43;97934.22;;;10.32;31.51
40285;BME280;25997;50.214;19.354;2023-03-19T07:44:49;97946.81;;;10.47;31.37
40285;BME280;25997;50.214;19.354;2023-03-19T07:47:51;97941.53;;;10.45;31.23
40285;BME280;25997;50.214;19.354;2023-03-19T07:50:55;97942.22;;;10.38;31.33
40285;BME280;25997;50.214;19.354;2023-03-19T07:53:58;97934.00;;;10.59;31.13
40285;BME280;25997;50.214;19.354;2023-03-19T07:57:01;97943.75;;;10.64;31.13
40285;BME280;25997;50.214;19.354;2023-03-19T08:00:04;97938.38;;;10.58;31.32
40285;BME280;25997;50.214;19.354;2023-03-19T08:03:13;97947.91;;;10.55;30.99
40285;BME280;25997;50.214;19.354;2023-03-19T08:06:17;97943.97;;;10.73;31.03
40285;BME280;25997;50.214;19.354;2023-03-19T08:09:20;97948.53;;;10.81;30.97
40285;BME280;25997;50.214;19.354;2023-03-19T08:12:22;97940.84;;;10.90;30.78
40285;BME280;25997;50.214;19.354;2023-03-19T08:15:25;97939.28;;;10.98;30.63
40285;BME280;25997;50.214;19.354;2023-03-19T08:18:28;97942.09;;;11.05;30.81
40285;BME280;25997;50.214;19.354;2023-03-19T08:21:31;97937.19;;;11.20;30.65
40285;BME280;25997;50.214;19.354;2023-03-19T08:24:34;97930.50;;;11.33;30.34
40285;BME280;25997;50.214;19.354;2023-03-19T08:27:37;97936.91;;;11.47;30.04
40285;BME280;25997;50.214;19.354;2023-03-19T08:30:39;97937.16;;;11.59;30.21
40285;BME280;25997;50.214;19.354;2023-03-19T08:33:42;97940.88;;;11.69;30.06
40285;BME280;25997;50.214;19.354;2023-03-19T08:36:45;97941.44;;;11.99;29.99
40285;BME280;25997;50.214;19.354;2023-03-19T08:39:49;97932.94;;;12.10;29.40
40285;BME280;25997;50.214;19.354;2023-03-19T08:42:52;97928.69;;;12.18;29.13
40285;BME280;25997;50.214;19.354;2023-03-19T08:45:55;97922.53;;;12.18;29.31
40285;BME280;25997;50.214;19.354;2023-03-19T08:48:58;97934.09;;;12.26;29.19
40285;BME280;25997;50.214;19.354;2023-03-19T08:52:02;97942.16;;;12.37;28.77
40285;BME280;25997;50.214;19.354;2023-03-19T08:55:06;97935.75;;;12.23;28.79
40285;BME280;25997;50.214;19.354;2023-03-19T08:58:08;97938.53;;;12.29;28.75
40285;BME280;25997;50.214;19.354;2023-03-19T09:01:12;97936.25;;;12.50;28.39
40285;BME280;25997;50.214;19.354;2023-03-19T09:04:15;97939.88;;;12.58;28.32
40285;BME280;25997;50.214;19.354;2023-03-19T09:07:19;97944.25;;;12.56;28.10
40285;BME280;25997;50.214;19.354;2023-03-19T09:10:22;97934.00;;;12.72;28.30
40285;BME280;25997;50.214;19.354;2023-03-19T09:13:24;97927.38;;;13.00;28.11
40285;BME280;25997;50.214;19.354;2023-03-19T09:16:27;97927.22;;;13.49;28.07
40285;BME280;25997;50.214;19.354;2023-03-19T09:19:30;97928.09;;;13.51;27.83
40285;BME280;25997;50.214;19.354;2023-03-19T09:22:34;97937.09;;;13.64;27.80
40285;BME280;25997;50.214;19.354;2023-03-19T09:25:37;97929.19;;;13.66;27.66
40285;BME280;25997;50.214;19.354;2023-03-19T09:28:39;97929.06;;;13.55;27.52
40285;BME280;25997;50.214;19.354;2023-03-19T09:31:42;97940.63;;;13.68;27.73
40285;BME280;25997;50.214;19.354;2023-03-19T09:34:44;97923.84;;;13.61;27.57
40285;BME280;25997;50.214;19.354;2023-03-19T09:37:49;97924.75;;;13.64;27.33
40285;BME280;25997;50.214;19.354;2023-03-19T09:41:04;97923.16;;;13.80;27.33
40285;BME280;25997;50.214;19.354;2023-03-19T09:44:12;97923.94;;;13.69;27.05
40285;BME280;25997;50.214;19.354;2023-03-19T09:47:27;97934.28;;;13.52;27.25
40285;BME280;25997;50.214;19.354;2023-03-19T09:50:32;97927.38;;;13.63;27.43
40285;BME280;25997;50.214;19.354;2023-03-19T09:53:43;97930.38;;;13.93;27.09
40285;BME280;25997;50.214;19.354;2023-03-19T09:56:48;97924.41;;;14.08;26.95
40285;BME280;25997;50.214;19.354;2023-03-19T09:59:51;97921.66;;;13.99;27.17
40285;BME280;25997;50.214;19.354;2023-03-19T10:03:00;97924.47;;;14.14;26.52
40285;BME280;25997;50.214;19.354;2023-03-19T10:06:17;97918.75;;;14.65;26.62
40285;BME280;25997;50.214;19.354;2023-03-19T10:09:43;97912.94;;;15.07;26.63
40285;BME280;25997;50.214;19.354;2023-03-19T10:12:57;97916.81;;;15.78;26.21
40285;BME280;25997;50.214;19.354;2023-03-19T10:16:04;97913.41;;;16.20;26.24
40285;BME280;25997;50.214;19.354;2023-03-19T10:19:09;97919.56;;;16.25;25.29
40285;BME280;25997;50.214;19.354;2023-03-19T10:22:18;97905.41;;;16.09;25.47
40285;BME280;25997;50.214;19.354;2023-03-19T10:25:26;97898.44;;;16.46;25.78
40285;BME280;25997;50.214;19.354;2023-03-19T10:28:31;97896.59;;;16.12;25.40
40285;BME280;25997;50.214;19.354;2023-03-19T10:31:52;97902.75;;;15.99;24.23
40285;BME280;25997;50.214;19.354;2023-03-19T10:35:03;97893.03;;;15.96;24.78
40285;BME280;25997;50.214;19.354;2023-03-19T10:38:15;97891.38;;;16.51;24.40
40285;BME280;25997;50.214;19.354;2023-03-19T10:41:37;97890.44;;;17.11;23.73
40285;BME280;25997;50.214;19.354;2023-03-19T10:44:48;97885.13;;;17.00;23.87
40285;BME280;25997;50.214;19.354;2023-03-19T10:47:52;97878.81;;;17.57;24.47
40285;BME280;25997;50.214;19.354;2023-03-19T10:50:57;97884.00;;;17.77;24.44
40285;BME280;25997;50.214;19.354;2023-03-19T10:54:01;97888.56;;;17.51;23.62
40285;BME280;25997;50.214;19.354;2023-03-19T10:57:05;97875.13;;;17.84;23.78
40285;BME280;25997;50.214;19.354;2023-03-19T11:00:16;97875.34;;;18.78;23.02
40285;BME280;25997;50.214;19.354;2023-03-19T11:03:29;97868.44;;;19.49;22.42
40285;BME280;25997;50.214;19.354;2023-03-19T11:06:33;97869.25;;;19.52;23.00
40285;BME280;25997;50.214;19.354;2023-03-19T11:09:37;97859.91;;;19.15;22.86
40285;BME280;25997;50.214;19.354;2023-03-19T11:12:46;97862.13;;;18.72;21.94
40285;BME280;25997;50.214;19.354;2023-03-19T11:15:56;97853.22;;;18.78;23.20
40285;BME280;25997;50.214;19.354;2023-03-19T11:19:00;97843.41;;;19.60;22.67
40285;BME280;25997;50.214;19.354;2023-03-19T11:22:09;97854.09;;;19.57;21.24
40285;BME280;25997;50.214;19.354;2023-03-19T11:25:16;97840.50;;;19.80;21.90
40285;BME280;25997;50.214;19.354;2023-03-19T11:28:22;97838.69;;;20.41;21.86
40285;BME280;25997;50.214;19.354;2023-03-19T11:31:29;97829.59;;;21.03;21.58
40285;BME280;25997;50.214;19.354;2023-03-19T11:34:43;97833.66;;;21.22;20.37
40285;BME280;25997;50.214;19.354;2023-03-19T11:37:53;97836.13;;;20.87;20.06
40285;BME280;25997;50.214;19.354;2023-03-19T11:41:01;97828.31;;;19.59;20.79
40285;BME280;25997;50.214;19.354;2023-03-19T11:44:14;97818.16;;;19.20;21.44
40285;BME280;25997;50.214;19.354;2023-03-19T11:47:26;97827.19;;;19.04;21.10
40285;BME280;25997;50.214;19.354;2023-03-19T11:50:38;97819.78;;;19.30;21.73
40285;BME280;25997;50.214;19.354;2023-03-19T11:53:52;97824.81;;;20.18;20.52
40285;BME280;25997;50.214;19.354;2023-03-19T11:57:03;97808.84;;;20.68;21.13
40285;BME280;25997;50.214;19.354;2023-03-19T12:00:20;97800.66;;;21.25;20.74
40285;BME280;25997;50.214;19.354;2023-03-19T12:04:01;97795.19;;;21.74;19.93
40285;BME280;25997;50.214;19.354;2023-03-19T12:07:12;97800.28;;;21.44;20.44
40285;BME280;25997;50.214;19.354;2023-03-19T12:10:37;97801.00;;;21.08;19.29
40285;BME280;25997;50.214;19.354;2023-03-19T12:13:52;97798.69;;;20.40;20.01
40285;BME280;25997;50.214;19.354;2023-03-19T12:17:14;97796.88;;;20.40;20.14
40285;BME280;25997;50.214;19.354;2023-03-19T12:20:26;97778.66;;;20.65;20.53
40285;BME280;25997;50.214;19.354;2023-03-19T12:23:39;97777.97;;;20.54;19.63
40285;BME280;25997;50.214;19.354;2023-03-19T12:26:50;97773.56;;;21.02;19.77
40285;BME280;25997;50.214;19.354;2023-03-19T12:29:59;97771.34;;;21.22;19.12
40285;BME280;25997;50.214;19.354;2023-03-19T12:33:28;97765.44;;;21.06;19.51
40285;BME280;25997;50.214;19.354;2023-03-19T12:36:39;97770.13;;;20.95;20.16
40285;BME280;25997;50.214;19.354;2023-03-19T12:39:51;97766.28;;;20.61;20.04
40285;BME280;25997;50.214;19.354;2023-03-19T12:42:57;97765.53;;;20.54;20.19
40285;BME280;25997;50.214;19.354;2023-03-19T12:46:06;97770.78;;;20.59;20.04
40285;BME280;25997;50.214;19.354;2023-03-19T12:49:17;97762.22;;;20.89;20.37
40285;BME280;25997;50.214;19.354;2023-03-19T12:52:24;97758.53;;;21.39;20.69
40285;BME280;25997;50.214;19.354;2023-03-19T12:55:36;97759.78;;;21.64;20.12
40285;BME280;25997;50.214;19.354;2023-03-19T12:58:50;97757.66;;;22.16;19.29
40285;BME280;25997;50.214;19.354;2023-03-19T13:01:58;97764.25;;;22.37;19.99
40285;BME280;25997;50.214;19.354;2023-03-19T13:05:08;97756.25;;;22.37;19.64
40285;BME280;25997;50.214;19.354;2023-03-19T13:08:27;97754.22;;;21.73;18.95
40285;BME280;25997;50.214;19.354;2023-03-19T13:11:38;97746.53;;;21.17;20.06
40285;BME280;25997;50.214;19.354;2023-03-19T13:14:48;97752.09;;;21.06;19.81
40285;BME280;25997;50.214;19.354;2023-03-19T13:17:59;97747.97;;;20.41;20.01
40285;BME280;25997;50.214;19.354;2023-03-19T13:21:18;97754.06;;;19.94;19.91
40285;BME280;25997;50.214;19.354;2023-03-19T13:24:25;97751.50;;;19.88;20.66
40285;BME280;25997;50.214;19.354;2023-03-19T13:27:30;97740.88;;;19.23;20.73
40285;BME280;25997;50.214;19.354;2023-03-19T13:30:33;97734.56;;;19.30;20.90
40285;BME280;25997;50.214;19.354;2023-03-19T13:33:39;97737.69;;;19.64;20.67
40285;BME280;25997;50.214;19.354;2023-03-19T13:36:46;97730.41;;;20.30;20.36
40285;BME280;25997;50.214;19.354;2023-03-19T13:39:49;97743.13;;;20.63;20.21
40285;BME280;25997;50.214;19.354;2023-03-19T13:42:55;97734.59;;;20.43;19.95
40285;BME280;25997;50.214;19.354;2023-03-19T13:46:03;97742.13;;;20.70;20.02
40285;BME280;25997;50.214;19.354;2023-03-19T13:49:26;97740.19;;;20.80;19.86
40285;BME280;25997;50.214;19.354;2023-03-19T13:52:48;97740.28;;;20.23;19.88
40285;BME280;25997;50.214;19.354;2023-03-19T13:55:52;97741.44;;;19.49;20.91
40285;BME280;25997;50.214;19.354;2023-03-19T13:59:23;97741.16;;;19.03;20.86
40285;BME280;25997;50.214;19.354;2023-03-19T14:02:47;97735.00;;;18.98;21.47
40285;BME280;25997;50.214;19.354;2023-03-19T14:05:55;97724.84;;;19.27;21.01
40285;BME280;25997;50.214;19.354;2023-03-19T14:08:59;97723.97;;;19.28;21.13
40285;BME280;25997;50.214;19.354;2023-03-19T14:12:20;97718.53;;;19.36;20.73
40285;BME280;25997;50.214;19.354;2023-03-19T14:15:25;97725.16;;;19.70;20.84
40285;BME280;25997;50.214;19.354;2023-03-19T14:18:30;97722.00;;;19.99;20.79
40285;BME280;25997;50.214;19.354;2023-03-19T14:21:39;97717.13;;;19.72;20.50
40285;BME280;25997;50.214;19.354;2023-03-19T14:24:53;97715.91;;;19.31;20.74
40285;BME280;25997;50.214;19.354;2023-03-19T14:27:58;97715.00;;;19.35;21.13
40285;BME280;25997;50.214;19.354;2023-03-19T14:31:02;97723.16;;;19.83;20.88
40285;BME280;25997;50.214;19.354;2023-03-19T14:34:23;97707.59;;;20.12;20.63
40285;BME280;25997;50.214;19.354;2023-03-19T14:37:32;97712.50;;;20.36;20.81
40285;BME280;25997;50.214;19.354;2023-03-19T14:40:43;97712.19;;;20.02;20.64
40285;BME280;25997;50.214;19.354;2023-03-19T14:44:30;97705.25;;;19.31;20.77
40285;BME280;25997;50.214;19.354;2023-03-19T14:51:30;97705.34;;;18.52;21.31
40285;BME280;25997;50.214;19.354;2023-03-19T14:54:40;97697.22;;;18.68;21.51
40285;BME280;25997;50.214;19.354;2023-03-19T14:57:47;97705.91;;;18.83;21.59
40285;BME280;25997;50.214;19.354;2023-03-19T15:00:51;97705.94;;;18.80;21.51
40285;BME280;25997;50.214;19.354;2023-03-19T15:03:56;97708.63;;;18.79;21.51
40285;BME280;25997;50.214;19.354;2023-03-19T15:07:00;97703.56;;;18.51;21.64
40285;BME280;25997;50.214;19.354;2023-03-19T15:10:04;97699.28;;;18.41;21.75
40285;BME280;25997;50.214;19.354;2023-03-19T15:13:20;97704.63;;;18.40;21.55
40285;BME280;25997;50.214;19.354;2023-03-19T15:16:31;97705.34;;;18.55;21.48
40285;BME280;25997;50.214;19.354;2023-03-19T15:19:38;97703.34;;;18.77;21.52
40285;BME280;25997;50.214;19.354;2023-03-19T15:22:41;97705.13;;;18.75;21.28
40285;BME280;25997;50.214;19.354;2023-03-19T15:25:45;97694.50;;;18.75;21.53
40285;BME280;25997;50.214;19.354;2023-03-19T15:28:50;97705.94;;;18.82;21.49
40285;BME280;25997;50.214;19.354;2023-03-19T15:31:53;97704.13;;;18.84;21.51
40285;BME280;25997;50.214;19.354;2023-03-19T15:34:55;97702.47;;;18.75;21.63
40285;BME280;25997;50.214;19.354;2023-03-19T15:37:59;97704.34;;;18.62;21.56
40285;BME280;25997;50.214;19.354;2023-03-19T15:41:05;97703.69;;;18.42;21.48
40285;BME280;25997;50.214;19.354;2023-03-19T15:44:14;97709.28;;;18.17;21.80
40285;BME280;25997;50.214;19.354;2023-03-19T15:47:23;97699.75;;;17.88;21.77
40285;BME280;25997;50.214;19.354;2023-03-19T15:50:27;97710.56;;;17.66;21.89
40285;BME280;25997;50.214;19.354;2023-03-19T15:53:33;97703.44;;;17.69;22.35
40285;BME280;25997;50.214;19.354;2023-03-19T15:56:37;97706.00;;;17.81;22.27
40285;BME280;25997;50.214;19.354;2023-03-19T15:59:42;97711.34;;;17.80;22.42
40285;BME280;25997;50.214;19.354;2023-03-19T16:02:48;97713.09;;;17.78;22.58
40285;BME280;25997;50.214;19.354;2023-03-19T16:05:59;97728.25;;;17.67;22.28
40285;BME280;25997;50.214;19.354;2023-03-19T16:09:18;97732.78;;;17.53;22.75
40285;BME280;25997;50.214;19.354;2023-03-19T16:12:37;97725.78;;;17.41;22.85
40285;BME280;25997;50.214;19.354;2023-03-19T16:15:42;97708.16;;;17.28;22.51
40285;BME280;25997;50.214;19.354;2023-03-19T16:18:47;97709.97;;;17.17;22.51
40285;BME280;25997;50.214;19.354;2023-03-19T16:21:52;97714.41;;;17.07;22.75
40285;BME280;25997;50.214;19.354;2023-03-19T16:24:54;97710.06;;;16.99;22.76
40285;BME280;25997;50.214;19.354;2023-03-19T16:27:58;97710.09;;;16.88;23.09